Time;durP1;ratioP1;P1;durP2;ratioP2;P2;SDS_P1;SDS_P2;PMS_P1;PMS_P2;Temp;Humidity;BMP_temperature;BMP_pressure;BME280_temperature;BME280_humidity;BME280_pressure;Samples;Min_cycle;Max_cycle;Signal;HPM_P1;HPM_P2
2023/12/07 00:01:09;;;;;;;155.80;51.65;;;;;;;;;;6314215;28;20078;-62
2023/12/07 00:04:09;;;;;;;143.77;50.22;;;;;;;;;;6314501;28;20160;-61
2023/12/07 00:07:10;;;;;;;159.27;50.90;;;;;;;;;;6312275;28;20130;-61
2023/12/07 00:10:12;;;;;;;131.70;45.08;;;;;;;;;;6314701;28;20044;-62
2023/12/07 00:13:13;;;;;;;142.65;49.28;;;;;;;;;;6315449;28;20071;-62
2023/12/07 00:16:13;;;;;;;134.25;47.88;;;;;;;;;;6314790;28;20422;-61
2023/12/07 00:19:14;;;;;;;120.72;40.10;;;;;;;;;;6314324;28;20070;-62
2023/12/07 00:22:15;;;;;;;107.78;38.03;;;;;;;;;;6313891;28;20052;-61
2023/12/07 00:25:15;;;;;;;104.18;34.00;;;;;;;;;;6315956;28;20048;-62
2023/12/07 00:28:16;;;;;;;91.68;33.50;;;;;;;;;;6313515;28;20143;-61
2023/12/07 00:31:17;;;;;;;96.18;31.98;;;;;;;;;;6314544;28;20040;-61
2023/12/07 00:34:18;;;;;;;94.13;30.45;;;;;;;;;;6314328;28;20154;-62
2023/12/07 00:37:19;;;;;;;91.53;31.83;;;;;;;;;;6295462;28;20044;-62
2023/12/07 00:40:20;;;;;;;91.80;29.38;;;;;;;;;;6312836;28;20051;-61
2023/12/07 00:43:20;;;;;;;95.63;33.58;;;;;;;;;;6317115;28;20044;-61
2023/12/07 00:46:21;;;;;;;98.32;34.47;;;;;;;;;;6313046;28;20048;-60
2023/12/07 00:49:22;;;;;;;93.75;30.88;;;;;;;;;;6313671;28;20044;-61
2023/12/07 00:52:23;;;;;;;98.75;31.38;;;;;;;;;;6317027;28;20096;-60
2023/12/07 00:55:23;;;;;;;93.60;31.02;;;;;;;;;;6313306;28;20097;-61
2023/12/07 00:58:24;;;;;;;88.28;29.70;;;;;;;;;;6313849;28;20067;-61
2023/12/07 01:01:24;;;;;;;92.05;31.33;;;;;;;;;;6313841;28;20403;-60
2023/12/07 01:04:25;;;;;;;92.13;30.55;;;;;;;;;;6312802;28;20561;-61
2023/12/07 01:07:26;;;;;;;94.55;29.85;;;;;;;;;;6315190;28;20401;-60
2023/12/07 01:10:27;;;;;;;95.05;30.92;;;;;;;;;;6310423;28;20048;-61
2023/12/07 01:13:28;;;;;;;83.72;28.25;;;;;;;;;;6312331;28;20719;-61
2023/12/07 01:16:28;;;;;;;82.93;28.77;;;;;;;;;;6308513;28;20090;-62
2023/12/07 01:19:29;;;;;;;89.03;29.75;;;;;;;;;;6312288;28;20056;-61
2023/12/07 01:22:30;;;;;;;90.70;27.60;;;;;;;;;;6313085;28;20044;-61
2023/12/07 01:25:31;;;;;;;83.93;27.15;;;;;;;;;;6313568;28;20036;-62
2023/12/07 01:28:32;;;;;;;81.93;27.77;;;;;;;;;;6312956;28;20553;-61
2023/12/07 01:31:33;;;;;;;85.57;26.85;;;;;;;;;;6313725;28;20044;-62
2023/12/07 01:34:33;;;;;;;81.47;27.10;;;;;;;;;;6314332;28;20118;-62
2023/12/07 01:37:35;;;;;;;89.65;26.80;;;;;;;;;;6314481;28;20054;-61
2023/12/07 01:40:35;;;;;;;91.37;28.70;;;;;;;;;;6313752;28;20150;-61
2023/12/07 01:43:36;;;;;;;83.40;27.63;;;;;;;;;;6314102;28;20310;-60
2023/12/07 01:46:37;;;;;;;87.63;26.70;;;;;;;;;;6313047;28;20438;-61
2023/12/07 01:49:39;;;;;;;86.13;27.80;;;;;;;;;;6313021;28;20408;-61
2023/12/07 01:52:44;;;;;;;77.43;27.50;;;;;;;;;;6315257;28;20470;-61
2023/12/07 01:55:45;;;;;;;89.85;27.90;;;;;;;;;;6313103;28;20493;-60
2023/12/07 01:58:46;;;;;;;85.82;27.20;;;;;;;;;;6312664;28;20082;-62
2023/12/07 02:01:47;;;;;;;87.22;25.65;;;;;;;;;;6311389;28;20130;-61
2023/12/07 02:04:48;;;;;;;80.50;26.63;;;;;;;;;;6310830;28;20509;-62
2023/12/07 02:07:49;;;;;;;80.70;28.05;;;;;;;;;;6312555;28;20445;-61
2023/12/07 02:10:51;;;;;;;85.53;27.25;;;;;;;;;;6312837;28;20079;-62
2023/12/07 02:13:55;;;;;;;83.82;28.20;;;;;;;;;;6314081;28;20063;-62
2023/12/07 02:17:10;;;;;;;83.90;26.20;;;;;;;;;;6303262;28;20050;-61
2023/12/07 02:20:30;;;;;;;86.00;24.83;;;;;;;;;;6307911;28;20070;-61
2023/12/07 02:23:32;;;;;;;85.10;25.42;;;;;;;;;;6312079;28;20487;-61
2023/12/07 02:26:51;;;;;;;90.95;26.52;;;;;;;;;;6312459;28;20487;-61
2023/12/07 02:29:52;;;;;;;80.53;24.77;;;;;;;;;;6313130;28;20483;-62
2023/12/07 02:32:53;;;;;;;82.22;27.90;;;;;;;;;;6312350;28;20052;-61
2023/12/07 02:35:54;;;;;;;91.50;28.33;;;;;;;;;;6315051;28;20059;-61
2023/12/07 02:38:58;;;;;;;84.97;27.08;;;;;;;;;;6317301;28;20052;-61
2023/12/07 02:41:59;;;;;;;85.43;27.02;;;;;;;;;;6309843;28;20565;-61
2023/12/07 02:45:00;;;;;;;77.13;24.85;;;;;;;;;;6319766;28;20044;-62
2023/12/07 02:48:01;;;;;;;92.97;27.23;;;;;;;;;;6319209;28;20505;-61
2023/12/07 02:51:01;;;;;;;81.88;25.52;;;;;;;;;;6319819;28;20040;-62
2023/12/07 02:54:02;;;;;;;89.47;27.92;;;;;;;;;;6317862;28;20398;-62
2023/12/07 02:57:03;;;;;;;90.40;28.63;;;;;;;;;;6320468;28;20041;-62
2023/12/07 03:00:08;;;;;;;82.95;26.92;;;;;;;;;;6319391;28;20403;-61
2023/12/07 03:03:08;;;;;;;89.43;28.00;;;;;;;;;;6316332;28;20047;-61
2023/12/07 03:06:09;;;;;;;86.90;27.45;;;;;;;;;;6317943;28;20453;-62
2023/12/07 03:09:10;;;;;;;86.15;26.92;;;;;;;;;;6315933;28;20055;-62
2023/12/07 03:12:11;;;;;;;86.22;27.88;;;;;;;;;;6316809;28;20078;-62
2023/12/07 03:15:13;;;;;;;91.75;29.33;;;;;;;;;;6315195;28;20510;-62
2023/12/07 03:18:14;;;;;;;;;;;;;;;;;;6317989;28;20039;-61
2023/12/07 03:21:14;;;;;;;94.07;31.55;;;;;;;;;;6316004;28;19931;-61
2023/12/07 03:24:15;;;;;;;112.10;35.85;;;;;;;;;;6314636;28;20086;-61
2023/12/07 03:27:16;;;;;;;113.70;35.35;;;;;;;;;;6316025;28;20551;-61
2023/12/07 03:30:16;;;;;;;107.30;39.45;;;;;;;;;;6315781;28;20044;-62
2023/12/07 03:33:18;;;;;;;112.20;37.63;;;;;;;;;;6314383;28;20604;-62
2023/12/07 03:36:19;;;;;;;107.93;35.35;;;;;;;;;;6316025;28;20055;-62
2023/12/07 03:39:21;;;;;;;115.97;33.42;;;;;;;;;;6316630;28;20044;-61
2023/12/07 03:42:22;;;;;;;103.88;33.67;;;;;;;;;;6315726;28;20101;-62
2023/12/07 03:45:23;;;;;;;99.03;30.92;;;;;;;;;;6315944;28;20044;-62
2023/12/07 03:48:23;;;;;;;103.00;34.63;;;;;;;;;;6315801;28;20040;-61
2023/12/07 03:51:24;;;;;;;98.95;32.38;;;;;;;;;;6313386;28;20067;-61
2023/12/07 03:54:25;;;;;;;104.60;32.28;;;;;;;;;;6316093;28;20071;-61
2023/12/07 03:57:25;;;;;;;102.15;32.67;;;;;;;;;;6316185;28;20052;-62
2023/12/07 04:00:26;;;;;;;107.68;32.65;;;;;;;;;;6315054;28;20051;-62
2023/12/07 04:03:27;;;;;;;105.00;30.70;;;;;;;;;;6314536;28;20051;-60
2023/12/07 04:06:28;;;;;;;95.07;32.10;;;;;;;;;;6315856;28;20119;-61
2023/12/07 04:09:30;;;;;;;102.03;32.92;;;;;;;;;;6316451;28;20182;-61
2023/12/07 04:12:31;;;;;;;;;;;;;;;;;;6315886;28;20122;-61
2023/12/07 04:15:31;;;;;;;92.93;29.05;;;;;;;;;;6315404;28;19938;-64
2023/12/07 04:18:32;;;;;;;102.95;31.45;;;;;;;;;;6314431;28;20044;-61
2023/12/07 04:21:33;;;;;;;101.88;29.65;;;;;;;;;;6315177;28;20044;-60
2023/12/07 04:24:34;;;;;;;95.38;29.13;;;;;;;;;;6315390;28;20044;-61
2023/12/07 04:27:34;;;;;;;104.32;32.33;;;;;;;;;;6316300;28;20056;-62
2023/12/07 04:30:35;;;;;;;110.82;32.00;;;;;;;;;;6314911;28;20423;-61
2023/12/07 04:33:36;;;;;;;98.95;30.27;;;;;;;;;;6314256;28;20044;-62
2023/12/07 04:36:36;;;;;;;107.53;31.45;;;;;;;;;;6315486;28;20043;-61
2023/12/07 04:39:37;;;;;;;105.22;32.88;;;;;;;;;;6314219;28;20062;-61
2023/12/07 04:42:38;;;;;;;110.22;33.67;;;;;;;;;;6314131;28;20051;-61
2023/12/07 04:45:38;;;;;;;110.15;34.55;;;;;;;;;;6312903;28;20406;-61
2023/12/07 04:48:40;;;;;;;111.57;33.47;;;;;;;;;;6314906;28;20495;-61
2023/12/07 04:51:41;;;;;;;108.38;31.92;;;;;;;;;;6313800;28;20048;-60
2023/12/07 04:54:42;;;;;;;96.10;31.75;;;;;;;;;;6314610;28;20051;-61
2023/12/07 04:57:43;;;;;;;109.95;32.30;;;;;;;;;;6313353;28;20048;-61
2023/12/07 05:00:44;;;;;;;110.22;32.22;;;;;;;;;;6315101;28;20392;-60
2023/12/07 05:03:45;;;;;;;106.00;32.55;;;;;;;;;;6313074;28;20533;-61
2023/12/07 05:06:46;;;;;;;108.43;32.80;;;;;;;;;;6312697;28;20097;-61
2023/12/07 05:09:46;;;;;;;111.15;31.50;;;;;;;;;;6313382;28;20044;-61
2023/12/07 05:12:47;;;;;;;118.47;33.58;;;;;;;;;;6313119;28;20105;-60
2023/12/07 05:15:48;;;;;;;110.80;32.22;;;;;;;;;;6311632;28;20427;-61
2023/12/07 05:18:49;;;;;;;113.90;32.35;;;;;;;;;;6312330;28;20051;-60
2023/12/07 05:21:49;;;;;;;108.80;33.05;;;;;;;;;;6313185;28;20055;-60
2023/12/07 05:24:50;;;;;;;106.57;33.13;;;;;;;;;;6313580;28;20043;-60
2023/12/07 05:27:51;;;;;;;113.60;33.72;;;;;;;;;;6312858;28;20058;-60
2023/12/07 05:30:52;;;;;;;113.40;32.10;;;;;;;;;;6315340;28;20092;-60
2023/12/07 05:33:53;;;;;;;109.07;32.75;;;;;;;;;;6296207;28;20040;-60
2023/12/07 05:36:54;;;;;;;110.13;33.25;;;;;;;;;;6313741;28;20044;-61
2023/12/07 05:39:54;;;;;;;112.88;31.95;;;;;;;;;;6313468;28;20399;-61
2023/12/07 05:42:55;;;;;;;109.78;32.38;;;;;;;;;;6313170;28;20055;-62
2023/12/07 05:45:56;;;;;;;106.05;31.92;;;;;;;;;;6312039;28;20048;-60
2023/12/07 05:48:56;;;;;;;107.20;31.50;;;;;;;;;;6313777;28;20135;-61
2023/12/07 05:51:57;;;;;;;101.25;30.67;;;;;;;;;;6311127;28;20414;-61
2023/12/07 05:54:58;;;;;;;96.45;30.33;;;;;;;;;;6315020;28;20051;-61
2023/12/07 05:57:58;;;;;;;98.70;29.65;;;;;;;;;;6313718;28;20055;-61
2023/12/07 06:01:01;;;;;;;115.20;31.40;;;;;;;;;;6309714;28;20048;-62
2023/12/07 06:04:01;;;;;;;;;;;;;;;;;;6306366;28;20655;-61
2023/12/07 06:07:03;;;;;;;97.72;29.80;;;;;;;;;;6309316;28;19933;-61
2023/12/07 06:10:05;;;;;;;93.57;27.67;;;;;;;;;;6309269;28;20059;-60
2023/12/07 06:13:06;;;;;;;111.15;32.88;;;;;;;;;;6307470;28;20151;-61
2023/12/07 06:16:06;;;;;;;107.93;33.80;;;;;;;;;;6312384;28;20317;-60
2023/12/07 06:19:07;;;;;;;102.85;31.55;;;;;;;;;;6313300;28;20079;-60
2023/12/07 06:22:08;;;;;;;106.32;31.73;;;;;;;;;;6313536;28;20473;-60
2023/12/07 06:25:09;;;;;;;100.95;30.80;;;;;;;;;;6312174;28;20609;-61
2023/12/07 06:28:10;;;;;;;105.28;32.80;;;;;;;;;;6305379;28;20618;-62
2023/12/07 06:31:12;;;;;;;112.88;31.92;;;;;;;;;;6305723;28;20552;-62
2023/12/07 06:34:12;;;;;;;102.37;31.63;;;;;;;;;;6308857;28;20036;-61
2023/12/07 06:37:13;;;;;;;103.45;31.13;;;;;;;;;;6291441;28;20441;-61
2023/12/07 06:40:14;;;;;;;98.03;30.75;;;;;;;;;;6309327;28;20530;-61
2023/12/07 06:43:14;;;;;;;102.30;30.05;;;;;;;;;;6284980;28;20052;-61
2023/12/07 06:46:16;;;;;;;103.78;31.90;;;;;;;;;;6308726;28;20048;-61
2023/12/07 06:49:17;;;;;;;100.93;29.95;;;;;;;;;;6308046;28;20050;-61
2023/12/07 06:52:17;;;;;;;103.53;31.38;;;;;;;;;;6305276;28;20052;-62
2023/12/07 06:55:19;;;;;;;99.20;31.65;;;;;;;;;;6309046;28;20064;-62
2023/12/07 06:58:20;;;;;;;113.45;32.15;;;;;;;;;;6309214;28;20464;-62
2023/12/07 07:01:21;;;;;;;108.45;31.65;;;;;;;;;;6311139;28;20040;-61
2023/12/07 07:04:21;;;;;;;97.25;30.42;;;;;;;;;;6308234;28;20055;-62
2023/12/07 07:07:22;;;;;;;107.50;32.85;;;;;;;;;;6309082;28;20575;-63
2023/12/07 07:10:23;;;;;;;103.53;32.70;;;;;;;;;;6306436;28;20036;-63
2023/12/07 07:13:24;;;;;;;101.00;33.40;;;;;;;;;;6303410;28;20050;-61
2023/12/07 07:16:25;;;;;;;112.07;33.08;;;;;;;;;;6309828;28;20403;-60
2023/12/07 07:19:25;;;;;;;103.22;31.95;;;;;;;;;;6309566;28;20139;-60
2023/12/07 07:22:26;;;;;;;108.35;32.60;;;;;;;;;;6310632;28;20044;-60
2023/12/07 07:25:27;;;;;;;99.70;29.90;;;;;;;;;;6307138;28;20071;-61
2023/12/07 07:28:28;;;;;;;103.53;30.67;;;;;;;;;;6314512;28;20043;-61
2023/12/07 07:31:29;;;;;;;107.55;30.67;;;;;;;;;;6308098;28;20040;-61
2023/12/07 07:34:30;;;;;;;122.07;31.52;;;;;;;;;;6314254;28;20036;-60
2023/12/07 07:37:31;;;;;;;115.70;34.13;;;;;;;;;;6304178;28;20510;-60
2023/12/07 07:40:31;;;;;;;109.45;32.05;;;;;;;;;;6312568;28;20451;-61
2023/12/07 07:43:34;;;;;;;110.07;31.85;;;;;;;;;;6309339;28;20563;-62
2023/12/07 07:46:34;;;;;;;105.80;30.83;;;;;;;;;;6314604;28;20048;-61
2023/12/07 07:49:35;;;;;;;110.55;31.67;;;;;;;;;;6317741;28;20865;-61
2023/12/07 07:52:36;;;;;;;111.53;33.28;;;;;;;;;;6311163;28;20048;-60
2023/12/07 07:55:37;;;;;;;104.38;31.52;;;;;;;;;;6314076;28;20125;-62
2023/12/07 07:58:37;;;;;;;114.18;31.33;;;;;;;;;;6315814;28;20048;-62
2023/12/07 08:01:38;;;;;;;112.65;31.73;;;;;;;;;;6317047;28;20178;-62
2023/12/07 08:04:38;;;;;;;109.97;30.70;;;;;;;;;;6314700;28;20403;-65
2023/12/07 08:07:40;;;;;;;106.50;32.38;;;;;;;;;;6299643;28;20082;-62
2023/12/07 08:10:41;;;;;;;111.05;31.80;;;;;;;;;;6316729;28;20472;-63
2023/12/07 08:13:41;;;;;;;109.55;33.78;;;;;;;;;;6311102;28;20052;-63
2023/12/07 08:16:46;;;;;;;103.15;33.28;;;;;;;;;;6317032;28;20403;-71
2023/12/07 08:19:47;;;;;;;103.95;30.92;;;;;;;;;;6317387;28;20048;-67
2023/12/07 08:22:48;;;;;;;120.90;33.55;;;;;;;;;;6316443;28;20052;-70
2023/12/07 08:25:49;;;;;;;115.50;34.03;;;;;;;;;;6316230;28;20051;-68
2023/12/07 08:28:50;;;;;;;106.72;32.63;;;;;;;;;;6318441;28;20051;-63
2023/12/07 08:31:51;;;;;;;109.35;33.78;;;;;;;;;;6317134;28;20055;-71
2023/12/07 08:34:52;;;;;;;108.57;34.15;;;;;;;;;;6317957;28;20097;-62
2023/12/07 08:37:53;;;;;;;110.50;34.03;;;;;;;;;;6317489;28;20097;-67
2023/12/07 08:40:54;;;;;;;103.90;32.90;;;;;;;;;;6317475;28;20051;-72
2023/12/07 08:43:54;;;;;;;116.18;33.28;;;;;;;;;;6316087;28;20134;-71
2023/12/07 08:46:55;;;;;;;112.32;32.80;;;;;;;;;;6317286;28;20083;-69
2023/12/07 08:49:56;;;;;;;118.10;34.03;;;;;;;;;;6316184;28;20044;-72
2023/12/07 08:52:56;;;;;;;110.60;34.67;;;;;;;;;;6309897;28;20071;-70
2023/12/07 08:55:57;;;;;;;121.13;36.67;;;;;;;;;;6316860;28;20048;-70
2023/12/07 08:58:58;;;;;;;124.97;35.22;;;;;;;;;;6316254;28;20050;-72
2023/12/07 09:01:59;;;;;;;121.22;35.25;;;;;;;;;;6315231;28;20466;-72
2023/12/07 09:04:59;;;;;;;107.15;33.08;;;;;;;;;;6316216;28;20070;-72
2023/12/07 09:08:00;;;;;;;119.90;35.53;;;;;;;;;;6314818;28;20831;-70
2023/12/07 09:11:01;;;;;;;109.60;35.72;;;;;;;;;;6314419;28;20111;-70
2023/12/07 09:14:01;;;;;;;114.95;34.97;;;;;;;;;;6303813;28;20040;-72
2023/12/07 09:17:02;;;;;;;122.65;36.28;;;;;;;;;;6307082;28;20051;-72
2023/12/07 09:20:14;;;;;;;107.13;35.13;;;;;;;;;;6316045;28;20169;-72
2023/12/07 09:23:15;;;;;;;114.07;35.17;;;;;;;;;;6313476;28;20064;-71
2023/12/07 09:26:15;;;;;;;113.15;35.22;;;;;;;;;;6315322;28;20050;-70
2023/12/07 09:29:16;;;;;;;119.68;35.20;;;;;;;;;;6314449;28;20441;-71
2023/12/07 09:32:17;;;;;;;103.97;33.42;;;;;;;;;;6315247;28;20475;-65
2023/12/07 09:35:21;;;;;;;107.50;34.63;;;;;;;;;;6314407;28;20048;-71
2023/12/07 09:38:22;;;;;;;118.50;36.25;;;;;;;;;;6315837;28;20083;-72
2023/12/07 09:41:23;;;;;;;111.90;34.70;;;;;;;;;;6315948;28;20046;-72
2023/12/07 09:44:24;;;;;;;120.35;34.30;;;;;;;;;;6313134;28;20048;-73
2023/12/07 09:47:28;;;;;;;129.77;37.72;;;;;;;;;;6310290;28;20079;-72
2023/12/07 09:50:30;;;;;;;126.82;37.90;;;;;;;;;;6313196;28;20044;-71
2023/12/07 09:53:33;;;;;;;111.47;37.70;;;;;;;;;;6312062;28;20394;-69
2023/12/07 09:56:34;;;;;;;119.35;37.88;;;;;;;;;;6312985;28;20117;-69
2023/12/07 09:59:36;;;;;;;118.30;37.35;;;;;;;;;;6313764;28;20059;-70
2023/12/07 10:02:38;;;;;;;124.57;35.90;;;;;;;;;;6310234;28;20051;-74
2023/12/07 10:05:59;;;;;;;124.45;35.47;;;;;;;;;;6304504;28;20139;-61
2023/12/07 10:09:04;;;;;;;124.43;36.33;;;;;;;;;;6312258;28;20051;-72
2023/12/07 10:12:05;;;;;;;131.88;39.50;;;;;;;;;;6313369;28;20193;-67
2023/12/07 10:15:13;;;;;;;126.45;38.30;;;;;;;;;;6313892;28;20046;-73
2023/12/07 10:18:24;;;;;;;128.57;38.35;;;;;;;;;;6313145;28;20444;-73
2023/12/07 10:21:32;;;;;;;131.30;38.95;;;;;;;;;;6309493;28;20123;-69
2023/12/07 10:24:33;;;;;;;128.40;39.88;;;;;;;;;;6307725;28;20044;-65
2023/12/07 10:27:35;;;;;;;131.95;41.38;;;;;;;;;;6308260;28;20044;-66
2023/12/07 10:30:36;;;;;;;129.85;41.22;;;;;;;;;;6313757;28;20083;-65
2023/12/07 10:33:37;;;;;;;129.32;39.78;;;;;;;;;;6312753;28;20253;-67
2023/12/07 10:36:37;;;;;;;114.35;38.00;;;;;;;;;;6312090;28;20072;-66
2023/12/07 10:39:38;;;;;;;141.25;40.45;;;;;;;;;;6308956;28;20076;-66
2023/12/07 10:42:41;;;;;;;126.13;40.22;;;;;;;;;;6312605;28;20102;-65
2023/12/07 10:45:43;;;;;;;130.00;41.00;;;;;;;;;;6306069;28;20082;-66
2023/12/07 10:48:56;;;;;;;126.03;39.85;;;;;;;;;;6302386;28;20047;-68
2023/12/07 10:52:00;;;;;;;130.95;40.20;;;;;;;;;;6311621;28;20048;-66
2023/12/07 10:55:07;;;;;;;138.85;43.70;;;;;;;;;;6301343;28;20051;-65
2023/12/07 10:58:09;;;;;;;133.80;41.97;;;;;;;;;;6309472;28;20076;-70
2023/12/07 11:01:11;;;;;;;124.13;42.97;;;;;;;;;;6311693;28;20052;-68
2023/12/07 11:04:13;;;;;;;141.18;44.75;;;;;;;;;;6318714;28;20098;-68
2023/12/07 11:07:19;;;;;;;142.63;43.40;;;;;;;;;;6315920;28;20044;-68
2023/12/07 11:10:33;;;;;;;128.50;40.88;;;;;;;;;;6314745;28;20088;-67
2023/12/07 11:13:37;;;;;;;122.13;39.83;;;;;;;;;;6316107;28;20040;-68
2023/12/07 11:16:41;;;;;;;146.50;42.92;;;;;;;;;;6296364;28;20052;-67
2023/12/07 11:19:46;;;;;;;137.80;43.45;;;;;;;;;;6315210;28;20055;-68
2023/12/07 11:22:48;;;;;;;141.55;42.20;;;;;;;;;;6308084;28;20093;-66
2023/12/07 11:25:51;;;;;;;128.38;41.42;;;;;;;;;;6314546;28;20047;-67
2023/12/07 11:28:52;;;;;;;135.15;43.00;;;;;;;;;;6317896;28;20044;-68
2023/12/07 11:31:56;;;;;;;130.60;42.70;;;;;;;;;;6317310;28;20503;-67
2023/12/07 11:35:04;;;;;;;154.93;48.15;;;;;;;;;;6317876;28;20040;-68
2023/12/07 11:38:08;;;;;;;149.18;49.58;;;;;;;;;;6319433;28;20056;-67
2023/12/07 11:41:09;;;;;;;158.10;49.40;;;;;;;;;;6317150;28;20146;-68
2023/12/07 11:44:10;;;;;;;144.93;49.73;;;;;;;;;;6311372;28;20231;-69
2023/12/07 11:47:18;;;;;;;149.45;49.58;;;;;;;;;;6316607;28;20044;-69
2023/12/07 11:50:22;;;;;;;162.23;50.22;;;;;;;;;;6309746;28;20063;-69
2023/12/07 11:53:24;;;;;;;170.52;52.22;;;;;;;;;;6317890;28;20133;-69
2023/12/07 11:56:24;;;;;;;173.82;55.63;;;;;;;;;;6318045;28;20407;-67
2023/12/07 11:59:25;;;;;;;171.13;54.47;;;;;;;;;;6315779;28;20048;-67
2023/12/07 12:02:26;;;;;;;160.88;55.08;;;;;;;;;;6315330;28;20059;-69
2023/12/07 12:05:26;;;;;;;178.00;58.53;;;;;;;;;;6317425;28;20052;-68
2023/12/07 12:08:27;;;;;;;168.32;56.75;;;;;;;;;;6316632;28;20048;-69
2023/12/07 12:11:28;;;;;;;180.13;57.30;;;;;;;;;;6314635;28;20067;-67
2023/12/07 12:14:29;;;;;;;175.43;57.92;;;;;;;;;;6309730;28;20396;-66
2023/12/07 12:17:31;;;;;;;182.95;60.30;;;;;;;;;;6309005;28;20067;-68
2023/12/07 12:20:32;;;;;;;182.03;61.13;;;;;;;;;;6316278;28;20040;-69
2023/12/07 12:23:33;;;;;;;175.23;59.27;;;;;;;;;;6308027;28;20048;-66
2023/12/07 12:26:34;;;;;;;189.85;62.05;;;;;;;;;;6313581;28;20935;-68
2023/12/07 12:29:36;;;;;;;182.93;59.42;;;;;;;;;;6314969;28;20525;-66
2023/12/07 12:32:44;;;;;;;184.15;62.75;;;;;;;;;;6297735;28;20143;-69
2023/12/07 12:35:46;;;;;;;197.80;64.82;;;;;;;;;;6314422;28;20090;-69
2023/12/07 12:38:48;;;;;;;208.88;66.90;;;;;;;;;;6291900;28;20047;-64
2023/12/07 12:41:54;;;;;;;206.45;65.18;;;;;;;;;;6309153;28;20460;-69
2023/12/07 12:44:55;;;;;;;199.73;65.63;;;;;;;;;;6287364;28;20483;-69
2023/12/07 12:47:56;;;;;;;215.77;70.90;;;;;;;;;;6305496;28;20100;-68
2023/12/07 12:50:57;;;;;;;212.27;71.63;;;;;;;;;;6299777;28;20048;-70
2023/12/07 12:53:59;;;;;;;215.88;71.35;;;;;;;;;;6301257;28;20059;-70
2023/12/07 12:57:00;;;;;;;218.07;70.97;;;;;;;;;;6304992;28;20044;-68
2023/12/07 13:00:01;;;;;;;214.27;71.75;;;;;;;;;;6306284;28;20235;-71
2023/12/07 13:03:04;;;;;;;225.43;71.85;;;;;;;;;;6303648;28;20136;-68
2023/12/07 13:06:05;;;;;;;221.82;72.97;;;;;;;;;;6303833;28;20144;-67
2023/12/07 13:09:06;;;;;;;238.68;75.55;;;;;;;;;;6307455;28;20056;-67
2023/12/07 13:12:07;;;;;;;215.63;74.55;;;;;;;;;;6305565;28;20060;-70
2023/12/07 13:15:09;;;;;;;228.10;75.50;;;;;;;;;;6300320;28;20102;-69
2023/12/07 13:18:10;;;;;;;216.65;72.47;;;;;;;;;;6305819;28;20036;-69
2023/12/07 13:21:11;;;;;;;226.65;74.20;;;;;;;;;;6307063;28;20052;-72
2023/12/07 13:24:12;;;;;;;217.85;72.25;;;;;;;;;;6303344;28;20075;-71
2023/12/07 13:27:15;;;;;;;224.82;73.22;;;;;;;;;;6302413;28;20056;-72
2023/12/07 13:30:16;;;;;;;224.95;75.03;;;;;;;;;;6306176;28;20055;-69
2023/12/07 13:33:16;;;;;;;227.57;76.43;;;;;;;;;;6304228;28;20155;-65
2023/12/07 13:36:17;;;;;;;225.68;74.18;;;;;;;;;;6302327;28;20052;-72
2023/12/07 13:39:20;;;;;;;230.85;74.40;;;;;;;;;;6305448;28;20052;-71
2023/12/07 13:42:21;;;;;;;229.75;76.22;;;;;;;;;;6304647;28;20046;-72
2023/12/07 13:45:22;;;;;;;232.45;75.50;;;;;;;;;;6300354;28;20945;-67
2023/12/07 13:48:24;;;;;;;227.07;74.10;;;;;;;;;;6295096;28;20137;-68
2023/12/07 13:51:24;;;;;;;230.95;77.03;;;;;;;;;;6306375;28;20118;-72
2023/12/07 13:54:26;;;;;;;245.65;77.60;;;;;;;;;;6302740;28;20712;-69
2023/12/07 13:57:27;;;;;;;222.43;77.45;;;;;;;;;;6302804;28;20075;-70
2023/12/07 14:00:28;;;;;;;233.05;76.43;;;;;;;;;;6300501;28;20036;-70
2023/12/07 14:03:29;;;;;;;233.13;77.00;;;;;;;;;;6303487;28;20644;-73
2023/12/07 14:06:29;;;;;;;228.57;73.78;;;;;;;;;;6302135;28;20056;-74
2023/12/07 14:09:30;;;;;;;232.57;75.97;;;;;;;;;;6305033;28;20043;-70
2023/12/07 14:12:33;;;;;;;219.63;72.95;;;;;;;;;;6302777;28;20561;-74
2023/12/07 14:15:35;;;;;;;220.95;73.57;;;;;;;;;;6302176;28;20050;-74
2023/12/07 14:18:35;;;;;;;218.63;68.85;;;;;;;;;;6285678;28;20474;-67
2023/12/07 14:21:36;;;;;;;217.90;71.55;;;;;;;;;;6294381;28;20068;-67
2023/12/07 14:24:37;;;;;;;222.77;74.72;;;;;;;;;;6310108;28;20099;-67
2023/12/07 14:27:38;;;;;;;210.88;69.85;;;;;;;;;;6314366;28;20083;-69
2023/12/07 14:30:41;;;;;;;196.27;67.43;;;;;;;;;;6311520;28;20206;-68
2023/12/07 14:33:44;;;;;;;213.85;71.05;;;;;;;;;;6310749;28;20041;-67
2023/12/07 14:36:46;;;;;;;215.40;70.00;;;;;;;;;;6317678;28;20127;-69
2023/12/07 14:39:47;;;;;;;217.90;74.60;;;;;;;;;;6321183;28;20052;-68
2023/12/07 14:42:48;;;;;;;216.95;71.15;;;;;;;;;;6318776;28;20473;-71
2023/12/07 14:45:48;;;;;;;194.82;66.25;;;;;;;;;;6316637;28;20098;-68
2023/12/07 14:48:49;;;;;;;209.60;68.88;;;;;;;;;;6319503;28;20044;-70
2023/12/07 14:51:50;;;;;;;197.02;64.10;;;;;;;;;;6298734;28;20786;-70
2023/12/07 14:54:53;;;;;;;208.80;69.72;;;;;;;;;;6318785;28;20052;-68
2023/12/07 14:57:54;;;;;;;197.00;65.13;;;;;;;;;;6317355;28;20048;-68
2023/12/07 15:00:54;;;;;;;195.52;66.55;;;;;;;;;;6318686;28;20131;-70
2023/12/07 15:03:56;;;;;;;175.32;60.38;;;;;;;;;;6315077;28;20553;-68
2023/12/07 15:06:57;;;;;;;180.07;58.97;;;;;;;;;;6315985;28;20380;-71
2023/12/07 15:09:57;;;;;;;185.13;61.03;;;;;;;;;;6313326;28;20044;-70
2023/12/07 15:12:58;;;;;;;190.45;59.95;;;;;;;;;;6316315;28;20139;-70
2023/12/07 15:19:09;;;;;;;187.80;60.92;;;;;;;;;;6459683;22;20072;-66
2023/12/07 15:22:10;;;;;;;181.32;56.88;;;;;;;;;;6249582;28;20045;-70
2023/12/07 15:25:10;;;;;;;182.20;58.10;;;;;;;;;;6249952;28;20496;-69
2023/12/07 15:28:14;;;;;;;172.38;59.60;;;;;;;;;;6247584;28;20048;-71
2023/12/07 15:31:15;;;;;;;173.38;58.22;;;;;;;;;;6250165;28;20072;-71
2023/12/07 15:34:16;;;;;;;181.33;57.27;;;;;;;;;;6243681;28;20059;-70
2023/12/07 15:37:17;;;;;;;179.43;56.38;;;;;;;;;;6249097;28;21688;-70
2023/12/07 15:40:18;;;;;;;177.53;57.80;;;;;;;;;;6250329;28;20052;-71
2023/12/07 15:43:18;;;;;;;173.77;56.53;;;;;;;;;;6244371;28;20046;-70
2023/12/07 15:46:20;;;;;;;173.75;56.15;;;;;;;;;;6251538;28;20049;-72
2023/12/07 15:49:22;;;;;;;154.00;54.27;;;;;;;;;;6246337;28;20081;-70
2023/12/07 15:52:23;;;;;;;167.48;54.15;;;;;;;;;;6248105;28;20129;-72
2023/12/07 15:55:23;;;;;;;158.65;54.13;;;;;;;;;;6247953;28;20882;-71
2023/12/07 15:58:24;;;;;;;154.25;54.42;;;;;;;;;;6251469;28;20139;-71
2023/12/07 16:01:25;;;;;;;153.60;53.35;;;;;;;;;;6248336;28;20045;-72
2023/12/07 16:04:25;;;;;;;153.35;51.70;;;;;;;;;;6244487;28;20057;-71
2023/12/07 16:07:26;;;;;;;147.40;52.58;;;;;;;;;;6245187;28;20048;-72
2023/12/07 16:10:27;;;;;;;162.13;54.53;;;;;;;;;;6254134;28;20318;-68
2023/12/07 16:13:27;;;;;;;160.32;55.60;;;;;;;;;;6247821;28;20053;-71
2023/12/07 16:16:28;;;;;;;161.02;52.97;;;;;;;;;;6248163;28;20065;-72
2023/12/07 16:19:29;;;;;;;166.32;53.60;;;;;;;;;;6249979;28;20065;-70
2023/12/07 16:22:30;;;;;;;170.38;52.30;;;;;;;;;;6256593;28;20122;-71
2023/12/07 16:25:30;;;;;;;162.18;51.92;;;;;;;;;;6249161;28;20049;-70
2023/12/07 16:28:31;;;;;;;167.48;53.05;;;;;;;;;;6246820;28;20049;-70
2023/12/07 16:31:32;;;;;;;157.27;52.92;;;;;;;;;;6243616;28;20060;-65
2023/12/07 16:34:33;;;;;;;172.30;56.85;;;;;;;;;;6241192;28;20484;-70
2023/12/07 16:37:34;;;;;;;152.23;52.30;;;;;;;;;;6250557;28;20075;-72
2023/12/07 16:40:35;;;;;;;160.63;55.03;;;;;;;;;;6251162;28;20059;-71
2023/12/07 16:43:37;;;;;;;174.05;55.60;;;;;;;;;;6245331;28;20403;-69
2023/12/07 16:46:39;;;;;;;156.95;52.03;;;;;;;;;;6240493;28;20056;-67
2023/12/07 16:49:40;;;;;;;;;;;;;;;;;;6242707;28;20314;-71
2023/12/07 16:52:41;;;;;;;142.98;49.42;;;;;;;;;;6246411;28;19960;-71
2023/12/07 16:55:44;;;;;;;156.77;48.97;;;;;;;;;;6242210;28;20100;-72
2023/12/07 16:58:45;;;;;;;152.15;53.95;;;;;;;;;;6246744;28;20476;-72
2023/12/07 17:01:45;;;;;;;151.52;51.65;;;;;;;;;;6245971;28;20049;-69
2023/12/07 17:04:46;;;;;;;153.23;52.95;;;;;;;;;;6242651;28;20049;-71
2023/12/07 17:07:47;;;;;;;167.82;53.58;;;;;;;;;;6242310;28;20054;-70
2023/12/07 17:10:48;;;;;;;154.68;52.45;;;;;;;;;;6245434;28;20057;-71
2023/12/07 17:13:49;;;;;;;153.63;51.88;;;;;;;;;;6245806;28;20052;-71
2023/12/07 17:16:50;;;;;;;154.68;52.40;;;;;;;;;;6259077;28;20672;-71
2023/12/07 17:19:51;;;;;;;153.02;52.40;;;;;;;;;;6243464;28;20400;-71
2023/12/07 17:22:52;;;;;;;153.02;53.83;;;;;;;;;;6246113;28;20053;-66
2023/12/07 17:25:52;;;;;;;152.63;53.05;;;;;;;;;;6245147;28;20056;-69
2023/12/07 17:28:53;;;;;;;158.80;52.65;;;;;;;;;;6243121;28;20480;-70